createdAt,value
2023-04-18T00:00:26.234Z,9.20
2023-04-18T00:02:54.322Z,9.20
2023-04-18T00:05:21.036Z,9.20
2023-04-18T00:07:47.984Z,9.20
2023-04-18T00:10:16.120Z,9.20
2023-04-18T00:12:42.329Z,9.20
2023-04-18T00:15:08.941Z,9.20
2023-04-18T00:17:38.157Z,9.20
2023-04-18T00:20:09.319Z,9.20
2023-04-18T00:22:41.631Z,9.20
2023-04-18T00:25:09.881Z,9.18
2023-04-18T00:27:37.850Z,9.10
2023-04-18T00:30:06.530Z,9.10
2023-04-18T00:32:32.459Z,9.10
2023-04-18T00:34:58.448Z,9.10
2023-04-18T00:37:24.345Z,9.10
2023-04-18T00:39:53.141Z,9.10
2023-04-18T00:42:23.847Z,9.10
2023-04-18T00:44:49.747Z,9.10
2023-04-18T00:47:19.089Z,9.00
2023-04-18T00:49:45.916Z,9.00
2023-04-18T00:52:12.448Z,9.00
2023-04-18T00:54:40.590Z,9.00
2023-04-18T00:57:07.515Z,9.00
2023-04-18T00:59:35.095Z,9.00
2023-04-18T01:02:04.649Z,9.00
2023-04-18T01:04:33.951Z,8.90
2023-04-18T01:07:01.714Z,8.90
2023-04-18T01:09:28.958Z,8.90
2023-04-18T01:11:54.861Z,8.90
2023-04-18T01:14:21.044Z,8.82
2023-04-18T01:16:47.958Z,8.90
2023-04-18T01:19:18.334Z,8.90
2023-04-18T01:21:44.832Z,8.90
2023-04-18T01:24:16.738Z,8.90
2023-04-18T01:26:48.989Z,8.88
2023-04-18T01:29:15.102Z,8.80
2023-04-18T01:31:41.443Z,8.88
2023-04-18T01:34:08.112Z,8.90
2023-04-18T01:36:36.058Z,8.80
2023-04-18T01:39:02.191Z,8.80
2023-04-18T01:41:31.734Z,8.80
2023-04-18T01:43:58.767Z,8.80
2023-04-18T01:46:26.054Z,8.80
2023-04-18T01:48:52.748Z,8.80
2023-04-18T01:51:19.753Z,8.80
2023-04-18T01:53:45.662Z,8.80
2023-04-18T01:56:11.742Z,8.80
2023-04-18T01:58:37.673Z,8.74
2023-04-18T02:01:03.832Z,8.80
2023-04-18T02:03:29.892Z,8.80
2023-04-18T02:05:56.516Z,8.80
2023-04-18T02:08:22.695Z,8.80
2023-04-18T02:10:48.743Z,8.80
2023-04-18T02:13:15.042Z,8.78
2023-04-18T02:15:42.937Z,8.70
2023-04-18T02:18:09.000Z,8.70
2023-04-18T02:20:35.629Z,8.70
2023-04-18T02:23:02.850Z,8.70
2023-04-18T02:25:29.813Z,8.70
2023-04-18T02:27:57.517Z,8.70
2023-04-18T02:30:25.061Z,8.70
2023-04-18T02:32:53.542Z,8.70
2023-04-18T02:35:24.160Z,8.68
2023-04-18T02:37:50.143Z,8.62
2023-04-18T02:40:17.460Z,8.60
2023-04-18T02:42:43.539Z,8.60
2023-04-18T02:45:12.418Z,8.60
2023-04-18T02:47:53.854Z,8.52
2023-04-18T02:50:21.940Z,8.60
2023-04-18T02:52:47.958Z,8.60
2023-04-18T02:55:15.188Z,8.60
2023-04-18T02:57:41.974Z,8.58
2023-04-18T03:00:21.804Z,8.50
2023-04-18T03:03:12.276Z,8.50
2023-04-18T03:05:51.264Z,8.50
2023-04-18T03:08:17.810Z,8.50
2023-04-18T03:10:44.972Z,8.50
2023-04-18T03:13:11.005Z,8.50
2023-04-18T03:15:37.377Z,8.50
2023-04-18T03:18:05.437Z,8.50
2023-04-18T03:20:33.973Z,8.50
2023-04-18T03:23:00.131Z,8.50
2023-04-18T03:25:26.606Z,8.50
2023-04-18T03:27:52.655Z,8.50
2023-04-18T03:30:20.244Z,8.50
2023-04-18T03:32:55.313Z,8.50
2023-04-18T03:35:21.463Z,8.50
2023-04-18T03:37:48.174Z,8.50
2023-04-18T03:40:21.435Z,8.40
2023-04-18T03:42:48.175Z,8.40
2023-04-18T03:45:15.275Z,8.40
2023-04-18T03:47:42.682Z,8.38
2023-04-18T03:50:09.336Z,8.30
2023-04-18T03:52:35.481Z,8.38
2023-04-18T03:55:04.082Z,8.40
2023-04-18T03:57:32.176Z,8.32
2023-04-18T03:59:58.932Z,8.30
2023-04-18T04:02:26.046Z,8.30
2023-04-18T04:04:52.316Z,8.30
2023-04-18T04:07:18.444Z,8.30
2023-04-18T04:09:44.703Z,8.30
2023-04-18T04:12:10.777Z,8.30
2023-04-18T04:14:36.704Z,8.30
2023-04-18T04:17:02.801Z,8.28
2023-04-18T04:19:29.269Z,8.20
2023-04-18T04:22:15.918Z,8.30
2023-04-18T04:24:42.149Z,8.30
2023-04-18T04:27:09.795Z,8.30
2023-04-18T04:29:38.406Z,8.24
2023-04-18T04:32:05.922Z,8.28
2023-04-18T04:34:36.191Z,8.30
2023-04-18T04:37:03.844Z,8.26
2023-04-18T04:39:31.306Z,8.30
2023-04-18T04:42:11.361Z,8.30
2023-04-18T04:44:44.515Z,8.28
2023-04-18T04:47:10.665Z,8.30
2023-04-18T04:49:37.818Z,8.28
2023-04-18T04:52:04.627Z,8.20
2023-04-18T04:54:30.528Z,8.20
2023-04-18T04:56:56.649Z,8.20
2023-04-18T04:59:22.712Z,8.20
2023-04-18T05:01:48.652Z,8.20
2023-04-18T05:04:15.434Z,8.20
2023-04-18T05:06:41.700Z,8.20
2023-04-18T05:09:07.653Z,8.20
2023-04-18T05:11:33.593Z,8.20
2023-04-18T05:13:59.782Z,8.20
2023-04-18T05:16:25.966Z,8.20
2023-04-18T05:18:51.789Z,8.28
2023-04-18T05:21:17.690Z,8.28
2023-04-18T05:23:43.666Z,8.20
2023-04-18T05:26:09.577Z,8.24
2023-04-18T05:28:35.512Z,8.30
2023-04-18T05:31:01.647Z,8.30
2023-04-18T05:33:29.390Z,8.30
2023-04-18T05:35:55.915Z,8.30
2023-04-18T05:38:22.040Z,8.30
2023-04-18T05:40:50.459Z,8.30
2023-04-18T05:43:19.281Z,8.40
2023-04-18T05:45:45.550Z,8.40
2023-04-18T05:48:11.871Z,8.50
2023-04-18T05:50:37.867Z,8.60
2023-04-18T05:53:03.891Z,8.60
2023-04-18T05:55:29.726Z,8.72
2023-04-18T05:57:55.702Z,9.00
2023-04-18T06:00:21.779Z,9.30
2023-04-18T06:02:49.069Z,9.40
2023-04-18T06:05:15.516Z,9.50
2023-04-18T06:07:41.931Z,9.60
2023-04-18T06:10:10.509Z,9.80
2023-04-18T06:12:36.549Z,10.00
2023-04-18T06:15:04.821Z,9.92
2023-04-18T06:17:30.873Z,10.00
2023-04-18T06:19:56.849Z,10.10
2023-04-18T06:22:22.819Z,10.20
2023-04-18T06:24:48.722Z,10.30
2023-04-18T06:27:27.762Z,10.20
2023-04-18T06:29:56.475Z,10.20
2023-04-18T06:32:22.409Z,10.20
2023-04-18T06:34:48.421Z,10.20
2023-04-18T06:37:14.308Z,10.30
2023-04-18T06:39:40.418Z,10.50
2023-04-18T06:42:06.456Z,10.80
2023-04-18T06:44:32.646Z,11.38
2023-04-18T06:46:58.601Z,11.60
2023-04-18T06:49:26.438Z,11.58
2023-04-18T06:51:52.773Z,11.60
2023-04-18T06:54:18.772Z,11.60
2023-04-18T06:56:45.085Z,11.70
2023-04-18T06:59:11.080Z,11.70
2023-04-18T07:01:43.656Z,11.80
2023-04-18T07:04:09.711Z,11.82
2023-04-18T07:06:35.842Z,12.10
2023-04-18T07:09:02.341Z,12.30
2023-04-18T07:11:28.281Z,12.20
2023-04-18T07:13:54.264Z,12.20
2023-04-18T07:16:20.461Z,12.10
2023-04-18T07:18:46.377Z,12.02
2023-04-18T07:21:12.297Z,12.10
2023-04-18T07:23:38.153Z,12.00
2023-04-18T07:26:05.318Z,11.96
2023-04-18T07:28:32.387Z,11.88
2023-04-18T07:31:00.551Z,11.80
2023-04-18T07:33:27.374Z,11.72
2023-04-18T07:35:53.358Z,11.70
2023-04-18T07:38:19.781Z,11.60
2023-04-18T07:40:45.766Z,11.70
2023-04-18T07:43:11.678Z,11.80
2023-04-18T07:45:37.748Z,11.94
2023-04-18T07:48:05.042Z,12.10
2023-04-18T07:50:30.993Z,12.10
2023-04-18T07:52:56.994Z,12.30
2023-04-18T07:55:23.380Z,12.48
2023-04-18T07:57:49.883Z,12.50
2023-04-18T08:00:17.549Z,12.50
2023-04-18T08:02:43.596Z,12.60
2023-04-18T08:05:10.079Z,12.40
2023-04-18T08:07:36.310Z,12.50
2023-04-18T08:10:02.752Z,12.50
2023-04-18T08:12:28.893Z,12.42
2023-04-18T08:14:54.788Z,12.30
2023-04-18T08:17:22.638Z,12.30
2023-04-18T08:19:48.581Z,12.30
2023-04-18T08:22:14.449Z,12.28
2023-04-18T08:24:41.703Z,12.16
2023-04-18T08:27:12.436Z,12.10
2023-04-18T08:29:38.309Z,11.90
2023-04-18T08:32:07.108Z,11.74
2023-04-18T08:34:35.727Z,11.60
2023-04-18T08:37:01.830Z,11.70
2023-04-18T08:39:27.730Z,11.60
2023-04-18T08:41:58.943Z,11.50
2023-04-18T08:44:28.635Z,11.50
2023-04-18T08:46:55.797Z,11.30
2023-04-18T08:49:22.042Z,11.30
2023-04-18T08:51:55.898Z,11.20
2023-04-18T08:54:21.822Z,11.10
2023-04-18T08:57:06.969Z,11.06
2023-04-18T08:59:34.908Z,11.00
2023-04-18T09:02:03.467Z,10.98
2023-04-18T09:04:44.164Z,11.00
2023-04-18T09:07:13.704Z,11.00
2023-04-18T09:09:53.711Z,11.10
2023-04-18T09:12:22.914Z,11.20
2023-04-18T09:14:56.893Z,11.10
2023-04-18T09:17:40.985Z,11.10
2023-04-18T09:20:10.088Z,11.10
2023-04-18T09:22:50.798Z,11.20
2023-04-18T09:25:47.908Z,11.22
2023-04-18T09:28:32.263Z,11.30
2023-04-18T09:31:09.509Z,11.40
2023-04-18T09:33:36.296Z,11.50
2023-04-18T09:36:23.298Z,11.40
2023-04-18T09:38:53.835Z,11.50
2023-04-18T09:41:22.484Z,11.50
2023-04-18T09:43:48.654Z,11.46
2023-04-18T09:46:16.903Z,11.50
2023-04-18T09:48:42.945Z,11.50
2023-04-18T09:51:13.678Z,11.42
2023-04-18T09:53:46.699Z,11.40
2023-04-18T09:56:19.949Z,11.40
2023-04-18T09:58:50.035Z,11.40
2023-04-18T10:01:18.959Z,11.40
2023-04-18T10:03:50.033Z,11.40
2023-04-18T10:06:16.565Z,11.40
2023-04-18T10:08:47.574Z,11.42
2023-04-18T10:11:14.063Z,11.50
2023-04-18T10:13:42.546Z,11.60
2023-04-18T10:16:09.883Z,11.70
2023-04-18T10:18:35.937Z,11.80
2023-04-18T10:21:03.499Z,12.00
2023-04-18T10:23:35.318Z,12.10
2023-04-18T10:26:03.808Z,12.20
2023-04-18T10:28:57.836Z,12.48
2023-04-18T10:31:28.546Z,12.60
2023-04-18T10:36:27.663Z,12.70
2023-04-18T10:39:19.452Z,12.74
2023-04-18T10:41:50.755Z,12.80
2023-04-18T10:44:22.044Z,12.78
2023-04-18T10:46:50.825Z,12.66
2023-04-18T10:49:26.241Z,12.52
2023-04-18T10:52:01.347Z,12.50
2023-04-18T10:54:46.700Z,12.46
2023-04-18T10:57:13.242Z,12.50
2023-04-18T10:59:43.163Z,12.50
2023-04-18T11:02:26.541Z,12.60
2023-04-18T11:04:55.144Z,12.60
2023-04-18T11:07:38.299Z,12.50
2023-04-18T11:10:07.326Z,12.40
2023-04-18T11:12:36.900Z,12.30
2023-04-18T11:15:10.942Z,12.30
2023-04-18T11:17:39.459Z,12.30
2023-04-18T11:20:10.761Z,12.30
2023-04-18T11:22:56.986Z,12.30
2023-04-18T11:25:32.070Z,12.50
2023-04-18T11:28:00.198Z,12.50
2023-04-18T11:30:27.131Z,12.62
2023-04-18T11:32:53.439Z,12.66
2023-04-18T11:35:19.290Z,12.70
2023-04-18T11:37:45.229Z,12.80
2023-04-18T11:40:13.662Z,12.90
2023-04-18T11:42:41.518Z,12.90
2023-04-18T11:45:14.960Z,12.92
2023-04-18T11:47:42.620Z,12.94
2023-04-18T11:50:11.469Z,12.90
2023-04-18T11:52:40.819Z,13.00
2023-04-18T11:55:24.108Z,13.00
2023-04-18T11:57:53.458Z,13.10
2023-04-18T12:00:38.271Z,13.10
2023-04-18T12:03:18.130Z,13.10
2023-04-18T12:05:44.857Z,13.20
2023-04-18T12:08:17.433Z,13.36
2023-04-18T12:10:50.004Z,13.50
2023-04-18T12:13:17.560Z,13.60
2023-04-18T12:15:46.195Z,13.70
2023-04-18T12:18:15.243Z,13.88
2023-04-18T12:20:49.375Z,14.00
2023-04-18T12:23:35.041Z,14.00
2023-04-18T12:26:06.576Z,14.10
2023-04-18T12:28:34.546Z,14.20
2023-04-18T12:31:01.270Z,14.22
2023-04-18T12:33:27.273Z,14.30
2023-04-18T12:35:53.660Z,14.30
2023-04-18T12:38:22.098Z,14.30
2023-04-18T12:40:49.314Z,14.30
2023-04-18T12:43:15.969Z,14.28
2023-04-18T12:45:41.984Z,14.20
2023-04-18T12:48:07.904Z,14.28
2023-04-18T12:50:34.246Z,14.20
2023-04-18T12:53:01.676Z,14.14
2023-04-18T12:55:28.524Z,14.10
2023-04-18T12:57:55.644Z,14.10
2023-04-18T13:00:26.008Z,14.00
2023-04-18T13:02:52.612Z,14.00
2023-04-18T13:05:24.701Z,14.00
2023-04-18T13:07:58.723Z,14.00
2023-04-18T13:10:31.553Z,14.00
2023-04-18T13:12:57.522Z,13.92
2023-04-18T13:15:23.736Z,13.90
2023-04-18T13:17:50.022Z,13.80
2023-04-18T13:20:16.097Z,13.80
2023-04-18T13:22:45.337Z,13.80
2023-04-18T13:25:11.394Z,13.80
2023-04-18T13:27:41.807Z,13.80
2023-04-18T13:30:10.683Z,13.80
2023-04-18T13:32:38.454Z,13.72
2023-04-18T13:35:08.147Z,13.70
2023-04-18T13:37:34.171Z,13.70
2023-04-18T13:40:00.249Z,13.60
2023-04-18T13:42:26.213Z,13.60
2023-04-18T13:44:52.157Z,13.60
2023-04-18T13:47:18.550Z,13.50
2023-04-18T13:49:44.573Z,13.50
2023-04-18T13:52:10.579Z,13.50
2023-04-18T13:54:36.961Z,13.48
2023-04-18T13:57:03.246Z,13.40
2023-04-18T13:59:31.792Z,13.30
2023-04-18T14:01:58.176Z,13.30
2023-04-18T14:04:24.751Z,13.20
2023-04-18T14:06:50.734Z,13.00
2023-04-18T14:09:17.422Z,12.98
2023-04-18T14:11:44.183Z,12.90
2023-04-18T14:14:10.278Z,12.80
2023-04-18T14:16:36.276Z,12.70
2023-04-18T14:19:02.381Z,12.60
2023-04-18T14:21:28.585Z,12.60
2023-04-18T14:23:54.870Z,12.70
2023-04-18T14:26:20.929Z,12.70
2023-04-18T14:28:47.043Z,12.68
2023-04-18T14:31:13.911Z,12.58
2023-04-18T14:33:40.667Z,12.50
2023-04-18T14:36:07.593Z,12.50
2023-04-18T14:38:33.562Z,12.40
2023-04-18T14:40:59.905Z,12.40
2023-04-18T14:43:26.750Z,12.34
2023-04-18T14:45:52.695Z,12.30
2023-04-18T14:48:18.702Z,12.20
2023-04-18T14:50:44.634Z,12.10
2023-04-18T14:53:11.391Z,12.10
2023-04-18T14:55:37.642Z,12.20
2023-04-18T14:58:03.671Z,12.20
2023-04-18T15:00:31.892Z,12.20
2023-04-18T15:02:57.968Z,12.24
2023-04-18T15:05:23.917Z,12.30
2023-04-18T15:07:51.346Z,12.24
2023-04-18T15:10:18.886Z,12.28
2023-04-18T15:12:46.164Z,12.30
2023-04-18T15:15:12.957Z,12.30
2023-04-18T15:17:39.162Z,12.30
2023-04-18T15:20:07.237Z,12.20
2023-04-18T15:22:34.258Z,12.10
2023-04-18T15:25:00.236Z,12.10
2023-04-18T15:27:26.176Z,12.00
2023-04-18T15:29:52.752Z,11.98
2023-04-18T15:32:18.862Z,11.90
2023-04-18T15:34:44.870Z,11.90
2023-04-18T15:37:10.770Z,11.90
2023-04-18T15:39:37.793Z,11.90
2023-04-18T15:42:03.922Z,11.90
2023-04-18T15:44:32.832Z,11.90
2023-04-18T15:47:00.645Z,11.80
2023-04-18T15:49:27.054Z,11.72
2023-04-18T15:51:52.922Z,11.70
2023-04-18T15:54:18.851Z,11.70
2023-04-18T15:56:44.862Z,11.70
2023-04-18T15:59:12.369Z,11.70
2023-04-18T16:01:38.304Z,11.70
2023-04-18T16:04:04.393Z,11.70
2023-04-18T16:06:30.772Z,11.70
2023-04-18T16:08:57.333Z,11.70
2023-04-18T16:11:26.828Z,11.70
2023-04-18T16:13:55.219Z,11.70
2023-04-18T16:16:21.230Z,11.70
2023-04-18T16:18:47.207Z,11.60
2023-04-18T16:21:14.671Z,11.60
2023-04-18T16:23:40.767Z,11.60
2023-04-18T16:26:06.902Z,11.60
2023-04-18T16:28:37.016Z,11.60
2023-04-18T16:31:05.242Z,11.60
2023-04-18T16:33:31.972Z,11.60
2023-04-18T16:36:01.823Z,11.60
2023-04-18T16:38:28.196Z,11.64
2023-04-18T16:40:57.071Z,11.60
2023-04-18T16:43:26.108Z,11.60
2023-04-18T16:45:56.870Z,11.60
2023-04-18T16:48:23.797Z,11.60
2023-04-18T16:50:49.972Z,11.60
2023-04-18T16:53:16.105Z,11.60
2023-04-18T16:55:42.158Z,11.60
2023-04-18T16:58:08.209Z,11.60
2023-04-18T17:00:37.724Z,11.60
2023-04-18T17:03:06.751Z,11.58
2023-04-18T17:05:32.929Z,11.56
2023-04-18T17:07:59.724Z,11.58
2023-04-18T17:10:25.832Z,11.54
2023-04-18T17:12:52.590Z,11.52
2023-04-18T17:15:18.854Z,11.50
2023-04-18T17:17:45.205Z,11.40
2023-04-18T17:20:11.850Z,11.40
2023-04-18T17:22:37.981Z,11.40
2023-04-18T17:25:04.666Z,11.36
2023-04-18T17:27:30.642Z,11.38
2023-04-18T17:29:56.559Z,11.36
2023-04-18T17:32:22.920Z,11.30
2023-04-18T17:34:50.024Z,11.30
2023-04-18T17:37:16.541Z,11.30
2023-04-18T17:39:43.122Z,11.30
2023-04-18T17:42:09.219Z,11.30
2023-04-18T17:44:38.942Z,11.20
2023-04-18T17:47:06.072Z,11.20
2023-04-18T17:49:35.466Z,11.10
2023-04-18T17:52:02.383Z,11.10
2023-04-18T17:54:28.282Z,11.06
2023-04-18T17:56:54.248Z,11.00
2023-04-18T17:59:20.204Z,11.00
2023-04-18T18:01:46.130Z,11.00
2023-04-18T18:04:12.819Z,11.00
2023-04-18T18:06:39.297Z,11.00
2023-04-18T18:09:05.539Z,10.96
2023-04-18T18:11:31.625Z,10.90
2023-04-18T18:13:57.587Z,10.90
2023-04-18T18:16:24.082Z,10.86
2023-04-18T18:18:50.324Z,10.80
2023-04-18T18:21:17.447Z,10.80
2023-04-18T18:23:43.448Z,10.80
2023-04-18T18:26:09.576Z,10.80
2023-04-18T18:28:36.066Z,10.80
2023-04-18T18:31:03.529Z,10.80
2023-04-18T18:33:29.550Z,10.72
2023-04-18T18:35:58.448Z,10.74
2023-04-18T18:38:24.820Z,10.76
2023-04-18T18:40:51.101Z,10.74
2023-04-18T18:43:16.998Z,10.80
2023-04-18T18:45:42.861Z,10.80
2023-04-18T18:48:09.624Z,10.80
2023-04-18T18:50:35.608Z,10.80
2023-04-18T18:53:01.599Z,10.80
2023-04-18T18:55:29.174Z,10.80
2023-04-18T18:57:55.100Z,10.80
2023-04-18T19:00:20.957Z,10.80
2023-04-18T19:02:47.783Z,10.80
2023-04-18T19:05:14.222Z,10.80
2023-04-18T19:07:43.364Z,10.80
2023-04-18T19:10:10.189Z,10.86
2023-04-18T19:12:37.387Z,10.82
2023-04-18T19:15:04.531Z,10.82
2023-04-18T19:17:30.754Z,10.80
2023-04-18T19:19:58.549Z,10.80
2023-04-18T19:22:24.567Z,10.80
2023-04-18T19:24:51.303Z,10.80
2023-04-18T19:27:17.260Z,10.80
2023-04-18T19:29:43.599Z,10.80
2023-04-18T19:32:09.855Z,10.80
2023-04-18T19:34:36.781Z,10.80
2023-04-18T19:37:03.446Z,10.80
2023-04-18T19:39:29.708Z,10.80
2023-04-18T19:41:55.724Z,10.72
2023-04-18T19:44:21.721Z,10.70
2023-04-18T19:46:47.558Z,10.72
2023-04-18T19:49:13.644Z,10.70
2023-04-18T19:51:40.278Z,10.70
2023-04-18T19:54:06.178Z,10.70
2023-04-18T19:56:32.216Z,10.70
2023-04-18T19:58:58.106Z,10.70
2023-04-18T20:01:27.034Z,10.70
2023-04-18T20:03:54.459Z,10.62
2023-04-18T20:06:21.100Z,10.64
2023-04-18T20:08:47.067Z,10.66
2023-04-18T20:11:13.664Z,10.60
2023-04-18T20:13:40.573Z,10.60
2023-04-18T20:16:08.288Z,10.60
2023-04-18T20:18:38.990Z,10.56
2023-04-18T20:21:08.277Z,10.50
2023-04-18T20:23:37.299Z,10.50
2023-04-18T20:26:03.750Z,10.52
2023-04-18T20:28:32.485Z,10.60
2023-04-18T20:30:58.521Z,10.60
2023-04-18T20:33:24.653Z,10.50
2023-04-18T20:35:50.529Z,10.50
2023-04-18T20:38:16.428Z,10.50
2023-04-18T20:40:45.131Z,10.50
2023-04-18T20:43:12.866Z,10.50
2023-04-18T20:45:42.003Z,10.50
2023-04-18T20:48:09.253Z,10.50
2023-04-18T20:50:35.193Z,10.40
2023-04-18T20:53:01.596Z,10.40
2023-04-18T20:55:27.610Z,10.40
2023-04-18T20:57:53.497Z,10.40
2023-04-18T21:00:19.499Z,10.40
2023-04-18T21:02:45.563Z,10.38
2023-04-18T21:05:11.611Z,10.40
2023-04-18T21:07:37.460Z,10.30
2023-04-18T21:10:03.824Z,10.30
2023-04-18T21:12:29.754Z,10.30
2023-04-18T21:14:55.697Z,10.30
2023-04-18T21:17:21.835Z,10.30
2023-04-18T21:19:48.757Z,10.30
2023-04-18T21:22:16.096Z,10.30
2023-04-18T21:24:42.806Z,10.30
2023-04-18T21:27:10.034Z,10.30
2023-04-18T21:29:36.449Z,10.30
2023-04-18T21:32:02.508Z,10.30
2023-04-18T21:34:28.750Z,10.30
2023-04-18T21:36:54.796Z,10.30
2023-04-18T21:39:20.723Z,10.30
2023-04-18T21:41:46.670Z,10.24
2023-04-18T21:44:12.810Z,10.20
2023-04-18T21:46:38.906Z,10.20
2023-04-18T21:49:06.115Z,10.20
2023-04-18T21:51:32.176Z,10.20
2023-04-18T21:53:58.602Z,10.18
2023-04-18T21:56:24.587Z,10.18
2023-04-18T21:58:50.516Z,10.10
2023-04-18T22:01:16.549Z,10.10
2023-04-18T22:03:42.596Z,10.10
2023-04-18T22:06:08.906Z,10.10
2023-04-18T22:08:35.386Z,10.10
2023-04-18T22:11:01.284Z,10.10
2023-04-18T22:13:32.298Z,10.10
2023-04-18T22:16:05.114Z,10.10
2023-04-18T22:18:35.265Z,10.10
2023-04-18T22:21:02.729Z,10.10
2023-04-18T22:23:29.606Z,10.10
2023-04-18T22:25:55.811Z,10.02
2023-04-18T22:28:27.097Z,10.02
2023-04-18T22:30:53.177Z,10.04
2023-04-18T22:33:19.298Z,10.06
2023-04-18T22:35:47.073Z,10.08
2023-04-18T22:38:13.193Z,10.02
2023-04-18T22:40:39.149Z,10.10
2023-04-18T22:43:04.964Z,10.06
2023-04-18T22:45:30.861Z,10.08
2023-04-18T22:47:56.698Z,10.00
2023-04-18T22:50:22.719Z,10.00
2023-04-18T22:52:49.844Z,10.02
2023-04-18T22:55:16.052Z,10.00
2023-04-18T22:57:42.088Z,10.00
2023-04-18T23:00:12.931Z,10.00
2023-04-18T23:02:39.040Z,10.00
2023-04-18T23:05:06.691Z,10.00
2023-04-18T23:07:32.772Z,10.00
2023-04-18T23:09:58.687Z,10.00
2023-04-18T23:12:24.657Z,10.00
2023-04-18T23:14:50.657Z,10.00
2023-04-18T23:17:16.477Z,10.00
2023-04-18T23:19:44.529Z,10.00
2023-04-18T23:22:10.387Z,10.00
2023-04-18T23:24:36.293Z,10.00
2023-04-18T23:27:02.290Z,10.00
2023-04-18T23:29:28.296Z,10.00
2023-04-18T23:31:54.382Z,10.00
2023-04-18T23:34:20.298Z,10.00
2023-04-18T23:36:46.487Z,10.00
2023-04-18T23:39:12.370Z,9.90
2023-04-18T23:41:38.341Z,9.90
2023-04-18T23:44:04.985Z,9.86
2023-04-18T23:46:30.923Z,9.80
2023-04-18T23:48:56.846Z,9.80
2023-04-18T23:51:22.751Z,9.80
2023-04-18T23:53:48.643Z,9.80
2023-04-18T23:56:14.716Z,9.80
2023-04-18T23:58:40.632Z,9.80
